createdAt,value
2023-03-03T00:03:09.997Z,1.42
2023-03-03T00:08:14.215Z,1.58
2023-03-03T00:13:19.696Z,1.48
2023-03-03T00:18:25.371Z,1.50
2023-03-03T00:23:40.411Z,1.67
2023-03-03T00:28:46.758Z,1.52
2023-03-03T00:33:50.577Z,1.50
2023-03-03T00:38:51.955Z,1.48
2023-03-03T00:43:53.529Z,1.50
2023-03-03T00:48:54.903Z,1.40
2023-03-03T00:53:56.709Z,1.63
2023-03-03T00:58:58.088Z,1.45
2023-03-03T01:03:59.496Z,1.70
2023-03-03T01:09:00.863Z,1.70
2023-03-03T01:14:02.291Z,1.70
2023-03-03T01:19:03.718Z,1.60
2023-03-03T01:24:05.142Z,1.73
2023-03-03T01:29:06.564Z,1.63
2023-03-03T01:34:07.966Z,1.33
2023-03-03T01:39:10.772Z,1.50
2023-03-03T01:44:14.435Z,1.50
2023-03-03T01:49:29.206Z,1.40
2023-03-03T01:54:33.796Z,1.40
2023-03-03T01:59:36.712Z,1.40
2023-03-03T02:04:38.140Z,1.27
2023-03-03T02:10:01.460Z,1.52
2023-03-03T02:15:16.018Z,1.20
2023-03-03T02:20:32.337Z,1.55
2023-03-03T02:25:58.839Z,1.50
2023-03-03T02:31:01.094Z,1.65
2023-03-03T02:36:02.469Z,1.60
2023-03-03T02:41:34.729Z,1.33
2023-03-03T02:46:37.873Z,1.30
2023-03-03T02:51:39.272Z,1.35
2023-03-03T02:56:40.651Z,1.40
2023-03-03T03:01:42.204Z,1.67
2023-03-03T03:06:44.000Z,1.45
2023-03-03T03:11:45.480Z,1.20
2023-03-03T03:16:46.909Z,1.58
2023-03-03T03:21:48.345Z,1.13
2023-03-03T03:26:49.731Z,1.20
2023-03-03T03:31:51.125Z,1.30
2023-03-03T03:36:52.522Z,1.40
2023-03-03T03:41:53.902Z,1.20
2023-03-03T03:46:55.308Z,1.40
2023-03-03T03:51:56.742Z,1.13
2023-03-03T03:56:58.144Z,1.17
2023-03-03T04:01:59.569Z,1.02
2023-03-03T04:07:01.026Z,1.40
2023-03-03T04:12:02.439Z,1.15
2023-03-03T04:17:03.800Z,1.08
2023-03-03T04:22:06.889Z,1.30
2023-03-03T04:27:11.550Z,1.00
2023-03-03T04:32:12.964Z,1.30
2023-03-03T04:37:14.364Z,1.23
2023-03-03T04:42:15.736Z,1.50
2023-03-03T04:47:17.154Z,1.15
2023-03-03T04:52:18.526Z,1.23
2023-03-03T04:57:19.917Z,1.42
2023-03-03T05:02:21.277Z,1.50
2023-03-03T05:07:22.736Z,1.20
2023-03-03T05:12:24.120Z,1.60
2023-03-03T05:17:25.500Z,1.35
2023-03-03T05:22:27.139Z,1.33
2023-03-03T05:27:28.525Z,1.33
2023-03-03T05:32:29.968Z,0.90
2023-03-03T05:37:31.407Z,1.30
2023-03-03T05:42:32.912Z,1.20
2023-03-03T05:47:34.324Z,1.90
2023-03-03T05:52:35.715Z,1.98
2023-03-03T05:57:37.102Z,2.17
2023-03-03T06:02:38.478Z,1.98
2023-03-03T06:07:39.909Z,2.10
2023-03-03T06:12:42.096Z,2.42
2023-03-03T06:17:43.509Z,2.25
2023-03-03T06:22:44.899Z,1.90
2023-03-03T06:27:46.301Z,1.90
2023-03-03T06:32:47.851Z,1.92
2023-03-03T06:37:50.677Z,1.90
2023-03-03T06:42:52.087Z,1.67
2023-03-03T06:47:53.518Z,1.70
2023-03-03T06:53:08.027Z,2.05
2023-03-03T06:58:14.818Z,2.20
2023-03-03T07:03:17.912Z,1.60
2023-03-03T07:08:20.547Z,1.65
2023-03-03T07:13:26.664Z,1.77
2023-03-03T07:18:53.456Z,1.70
2023-03-03T07:23:54.846Z,1.55
2023-03-03T07:29:00.729Z,1.48
2023-03-03T07:39:13.420Z,1.50
2023-03-03T07:44:21.720Z,1.58
2023-03-03T07:49:23.722Z,1.38
2023-03-03T07:54:42.243Z,1.58
2023-03-03T08:00:02.864Z,1.40
2023-03-03T08:05:29.984Z,1.40
2023-03-03T08:10:31.985Z,1.00
2023-03-03T08:15:33.425Z,0.90
2023-03-03T08:20:34.689Z,1.08
2023-03-03T08:25:36.080Z,1.00
2023-03-03T08:30:37.539Z,0.93
2023-03-03T08:35:38.949Z,0.90
2023-03-03T08:40:40.444Z,0.70
2023-03-03T08:45:41.814Z,0.93
2023-03-03T08:50:43.352Z,0.80
2023-03-03T08:55:47.687Z,0.90
2023-03-03T09:00:51.208Z,0.90
2023-03-03T09:05:54.011Z,0.88
2023-03-03T09:10:55.435Z,1.00
2023-03-03T09:15:58.224Z,0.80
2023-03-03T09:20:59.634Z,1.02
2023-03-03T09:26:28.041Z,0.77
2023-03-03T09:31:41.808Z,2.13
2023-03-03T09:36:43.201Z,1.85
2023-03-03T09:42:03.338Z,2.28
2023-03-03T09:47:23.634Z,1.98
2023-03-03T09:52:51.098Z,2.13
2023-03-03T09:58:13.980Z,2.42
2023-03-03T10:03:34.118Z,2.03
2023-03-03T10:08:53.674Z,1.85
2023-03-03T10:14:14.227Z,1.90
2023-03-03T10:19:46.446Z,1.80
2023-03-03T10:25:04.746Z,1.45
2023-03-03T10:30:41.054Z,1.98
2023-03-03T10:36:06.321Z,1.50
2023-03-03T10:41:18.435Z,1.10
2023-03-03T10:46:29.088Z,1.50
2023-03-03T10:51:43.444Z,1.88
2023-03-03T10:57:08.584Z,1.73
2023-03-03T11:02:26.906Z,1.65
2023-03-03T11:07:44.849Z,2.28
2023-03-03T11:13:15.057Z,1.45
2023-03-03T11:18:42.318Z,1.52
2023-03-03T11:24:05.719Z,1.55
2023-03-03T11:29:39.506Z,1.42
2023-03-03T11:34:57.979Z,1.73
2023-03-03T11:40:02.262Z,1.88
2023-03-03T11:45:11.021Z,1.92
2023-03-03T11:50:20.593Z,1.95
2023-03-03T11:55:27.185Z,1.17
2023-03-03T12:00:52.225Z,0.93
2023-03-03T12:06:25.013Z,1.20
2023-03-03T12:11:32.353Z,0.95
2023-03-03T12:16:49.979Z,1.00
2023-03-03T12:21:58.251Z,0.63
2023-03-03T12:27:18.922Z,0.65
2023-03-03T12:32:33.050Z,0.70
2023-03-03T12:38:05.414Z,0.43
2023-03-03T12:43:27.868Z,0.40
2023-03-03T12:48:43.224Z,0.40
2023-03-03T12:54:03.260Z,0.30
2023-03-03T12:59:25.444Z,0.38
2023-03-03T13:04:35.020Z,1.30
2023-03-03T13:10:05.543Z,1.55
2023-03-03T13:16:06.158Z,1.75
2023-03-03T13:21:24.215Z,1.88
2023-03-03T13:27:15.100Z,1.92
2023-03-03T13:32:23.611Z,1.20
2023-03-03T13:37:31.241Z,1.40
2023-03-03T13:42:43.570Z,1.15
2023-03-03T13:47:59.994Z,0.90
2023-03-03T13:53:13.409Z,1.00
2023-03-03T13:58:40.846Z,0.80
2023-03-03T14:03:51.158Z,0.77
2023-03-03T14:09:10.703Z,0.60
2023-03-03T14:14:36.200Z,0.70
2023-03-03T14:25:06.791Z,0.50
2023-03-03T14:30:36.202Z,0.50
2023-03-03T14:35:39.486Z,0.70
2023-03-03T14:40:45.354Z,0.40
2023-03-03T14:45:46.863Z,0.30
2023-03-03T14:50:58.874Z,0.52
2023-03-03T14:56:15.052Z,0.60
2023-03-03T15:01:32.928Z,0.63
2023-03-03T15:06:40.627Z,0.30
2023-03-03T15:11:42.016Z,0.43
2023-03-03T15:16:44.874Z,0.50
2023-03-03T15:22:07.547Z,0.40
2023-03-03T15:27:21.382Z,0.50
2023-03-03T15:32:34.444Z,0.43
2023-03-03T15:37:42.206Z,0.30
2023-03-03T15:42:50.385Z,0.40
2023-03-03T15:48:19.569Z,0.40
2023-03-03T15:53:58.101Z,0.40
2023-03-03T15:59:25.227Z,0.38
2023-03-03T16:04:29.435Z,0.45
2023-03-03T16:09:51.894Z,0.30
2023-03-03T16:15:26.320Z,0.50
2023-03-03T16:20:33.350Z,0.50
2023-03-03T16:25:49.757Z,0.60
2023-03-03T16:31:10.392Z,0.63
2023-03-03T16:36:21.031Z,0.80
2023-03-03T16:41:29.409Z,0.90
2023-03-03T16:46:44.827Z,0.80
2023-03-03T16:51:52.960Z,0.90
2023-03-03T16:57:28.322Z,0.90
2023-03-03T17:07:39.994Z,0.93
2023-03-03T17:13:04.245Z,1.00
2023-03-03T17:18:05.455Z,1.17
2023-03-03T17:23:28.275Z,0.90
2023-03-03T17:28:59.846Z,1.05
2023-03-03T17:34:19.631Z,1.10
2023-03-03T17:39:45.006Z,1.00
2023-03-03T17:44:58.606Z,0.93
2023-03-03T17:50:14.965Z,1.00
2023-03-03T17:55:37.132Z,0.85
2023-03-03T18:00:43.556Z,1.20
2023-03-03T18:06:04.248Z,1.33
2023-03-03T18:11:35.080Z,1.08
2023-03-03T18:17:07.857Z,1.38
2023-03-03T18:22:22.352Z,1.30
2023-03-03T18:27:23.568Z,1.23
2023-03-03T18:32:24.998Z,1.20
2023-03-03T18:37:39.167Z,1.27
2023-03-03T18:42:41.563Z,1.15
2023-03-03T18:48:01.319Z,1.30
2023-03-03T18:53:27.316Z,0.85
2023-03-03T18:58:41.166Z,1.40
2023-03-03T19:03:46.889Z,1.20
2023-03-03T19:08:56.777Z,1.23
2023-03-03T19:14:16.927Z,1.20
2023-03-03T19:19:38.972Z,1.30
2023-03-03T19:24:40.346Z,1.10
2023-03-03T19:29:53.959Z,1.25
2023-03-03T19:35:17.531Z,0.93
2023-03-03T19:40:41.888Z,1.17
2023-03-03T19:45:57.486Z,1.35
2023-03-03T19:51:06.046Z,1.13
2023-03-03T19:56:40.123Z,1.20
2023-03-03T20:01:57.131Z,1.05
2023-03-03T20:07:23.899Z,1.10
2023-03-03T20:12:53.982Z,0.80
2023-03-03T20:18:02.859Z,1.10
2023-03-03T20:23:38.423Z,0.90
2023-03-03T20:33:52.468Z,1.10
2023-03-03T20:39:10.266Z,0.80
2023-03-03T20:44:22.032Z,0.90
2023-03-03T20:49:47.097Z,1.00
2023-03-03T20:55:19.326Z,0.85
2023-03-03T21:00:22.700Z,0.98
2023-03-03T21:05:24.144Z,1.05
2023-03-03T21:10:27.188Z,1.13
2023-03-03T21:15:36.667Z,1.00
2023-03-03T21:20:38.139Z,0.90
2023-03-03T21:25:57.975Z,1.00
2023-03-03T21:31:15.593Z,1.13
2023-03-03T21:36:32.283Z,1.20
2023-03-03T21:41:50.786Z,1.27
2023-03-03T21:46:52.177Z,1.20
2023-03-03T21:51:54.563Z,1.40
2023-03-03T21:56:55.973Z,0.90
2023-03-03T22:01:57.390Z,1.25
2023-03-03T22:06:58.783Z,1.05
2023-03-03T22:12:00.159Z,1.42
2023-03-03T22:17:01.670Z,1.15
2023-03-03T22:22:03.045Z,1.50
2023-03-03T22:27:04.517Z,1.20
2023-03-03T22:32:06.057Z,1.40
2023-03-03T22:37:07.654Z,1.50
2023-03-03T22:42:10.047Z,1.30
2023-03-03T22:47:11.580Z,1.20
2023-03-03T22:52:13.005Z,1.58
2023-03-03T22:57:14.385Z,1.02
2023-03-03T23:02:15.772Z,1.40
2023-03-03T23:07:17.227Z,1.25
2023-03-03T23:12:18.615Z,1.52
2023-03-03T23:17:19.995Z,1.10
2023-03-03T23:22:21.415Z,1.40
2023-03-03T23:27:22.786Z,1.20
2023-03-03T23:32:24.458Z,1.30
2023-03-03T23:37:25.951Z,1.10
2023-03-03T23:42:30.750Z,1.00
2023-03-03T23:47:32.617Z,1.08
2023-03-03T23:52:34.046Z,1.05
2023-03-03T23:57:35.509Z,1.10
